Time;durP1;ratioP1;P1;durP2;ratioP2;P2;SDS_P1;SDS_P2;PMS_P1;PMS_P2;Temp;Humidity;BMP_temperature;BMP_pressure;BME280_temperature;BME280_humidity;BME280_pressure;Samples;Min_cycle;Max_cycle;Signal;HPM_P1;HPM_P2
2022/03/04 00:00:50;;;;;;;20.52;13.52;;;2.30;99.90;;;;;;4977633;28;20189;-79
2022/03/04 00:03:16;;;;;;;16.27;12.10;;;4.30;99.90;;;;;;5001134;28;20175;-79
2022/03/04 00:05:41;;;;;;;20.77;15.60;;;2.10;99.90;;;;;;5006440;28;20198;-79
2022/03/04 00:08:07;;;;;;;23.90;15.97;;;2.00;99.90;;;;;;5007205;28;20674;-79
2022/03/04 00:10:33;;;;;;;22.38;14.32;;;2.00;99.90;;;;;;5005785;28;20630;-79
2022/03/04 00:12:59;;;;;;;21.13;14.33;;;2.00;99.90;;;;;;5007641;28;20188;-79
2022/03/04 00:15:25;;;;;;;20.17;13.90;;;2.00;99.90;;;;;;4997404;28;20194;-80
2022/03/04 00:18:09;;;;;;;20.03;14.57;;;2.10;99.90;;;;;;5021035;28;20204;-80
2022/03/04 00:20:35;;;;;;;23.33;14.20;;;2.20;99.90;;;;;;4995448;28;20509;-79
2022/03/04 00:23:01;;;;;;;18.87;13.70;;;2.20;99.90;;;;;;4988502;28;20170;-79
2022/03/04 00:25:27;;;;;;;21.13;16.20;;;2.40;99.90;;;;;;4986848;28;20947;-79
2022/03/04 00:27:52;;;;;;;17.40;14.37;;;2.30;99.90;;;;;;5005724;28;20376;-80
2022/03/04 00:30:19;;;;;;;22.90;14.93;;;2.20;99.90;;;;;;4987376;28;20235;-79
2022/03/04 00:32:44;;;;;;;18.10;14.93;;;2.30;99.90;;;;;;5005812;28;20182;-79
2022/03/04 00:35:11;;;;;;;21.07;14.77;;;;;;;;;;5006754;28;20975;-79
2022/03/04 00:37:37;;;;;;;17.70;12.37;;;2.40;99.90;;;;;;4978329;28;20300;-79
2022/03/04 00:40:05;;;;;;;18.23;13.90;;;2.40;99.90;;;;;;5007063;28;20434;-79
2022/03/04 00:42:30;;;;;;;19.50;14.70;;;2.40;99.90;;;;;;5004376;28;20526;-79
2022/03/04 00:44:56;;;;;;;20.83;14.47;;;2.10;99.90;;;;;;4988702;28;20600;-79
2022/03/04 00:47:22;;;;;;;25.60;15.40;;;2.30;99.90;;;;;;4981748;28;20229;-79
2022/03/04 00:49:48;;;;;;;19.90;13.33;;;2.40;99.90;;;;;;5006366;28;20223;-79
2022/03/04 00:52:13;;;;;;;22.43;14.30;;;2.30;99.90;;;;;;5004939;28;20803;-80
2022/03/04 00:54:39;;;;;;;19.13;14.83;;;2.30;99.90;;;;;;5006851;28;20913;-80
2022/03/04 00:57:05;;;;;;;22.00;15.80;;;2.30;99.90;;;;;;5006349;28;20196;-79
2022/03/04 00:59:30;;;;;;;17.13;13.03;;;2.20;99.90;;;;;;5006618;28;20302;-79
2022/03/04 01:04:31;;;;;;;17.17;13.88;;;2.20;99.90;;;;;;5019134;23;20281;-84
2022/03/04 01:06:57;;;;;;;23.00;14.73;;;1.90;99.90;;;;;;5008628;28;20646;-84
2022/03/04 01:09:23;;;;;;;17.67;14.40;;;2.10;99.90;;;;;;5007184;28;20563;-84
2022/03/04 01:11:49;;;;;;;22.13;14.60;;;2.00;99.90;;;;;;5009162;28;20192;-84
2022/03/04 01:14:20;;;;;;;19.13;12.50;;;2.10;99.90;;;;;;5012373;28;20223;-84
2022/03/04 01:16:45;;;;;;;22.30;14.27;;;2.20;99.90;;;;;;5012916;28;20276;-83
2022/03/04 01:19:14;;;;;;;23.47;16.10;;;4.50;99.90;;;;;;5072653;23;20486;-93
2022/03/04 01:21:40;;;;;;;22.67;14.77;;;1.70;99.90;;;;;;5027904;28;20515;-92
2022/03/04 01:24:09;;;;;;;25.53;15.80;;;1.70;99.90;;;;;;5029103;28;20186;-92
2022/03/04 01:26:35;;;;;;;20.55;15.20;;;4.70;99.90;;;;;;4993008;28;20184;-92
2022/03/04 01:29:01;;;;;;;21.90;14.60;;;1.70;99.90;;;;;;5046148;28;20212;-92
2022/03/04 01:31:27;;;;;;;20.27;15.53;;;1.10;99.90;;;;;;5030242;28;20210;-92
2022/03/04 01:33:53;;;;;;;22.10;15.00;;;;;;;;;;5009691;28;20512;-92
2022/03/04 01:36:27;;;;;;;22.45;15.75;;;1.60;99.90;;;;;;5043994;28;20459;-93
2022/03/04 01:38:53;;;;;;;23.98;16.42;;;0.50;99.90;;;;;;5042447;28;20171;-92
2022/03/04 01:41:19;;;;;;;23.40;17.43;;;1.90;99.90;;;;;;5059396;28;20183;-93
2022/03/04 01:43:45;;;;;;;20.60;14.60;;;2.30;99.90;;;;;;5012276;28;20446;-92
2022/03/04 01:46:15;;;;;;;22.43;14.43;;;2.90;99.90;;;;;;5025382;28;20191;-92
2022/03/04 01:48:46;;;;;;;21.70;14.57;;;2.90;99.90;;;;;;5033575;28;20517;-92
2022/03/04 01:51:14;;;;;;;28.60;16.60;;;0.00;99.90;;;;;;5006547;28;20227;-92
2022/03/04 01:53:41;;;;;;;19.30;14.25;;;2.30;99.90;;;;;;5024888;28;20194;-92
2022/03/04 01:56:07;;;;;;;26.60;14.82;;;2.10;99.90;;;;;;5024465;28;20216;-93
2022/03/04 01:58:35;;;;;;;17.10;14.27;;;1.70;99.90;;;;;;5022996;28;20199;-92
2022/03/04 02:01:01;;;;;;;24.27;15.40;;;1.20;99.90;;;;;;5042245;28;20563;-92
2022/03/04 02:03:27;;;;;;;19.73;14.73;;;2.10;99.90;;;;;;5032745;28;20481;-92
2022/03/04 02:06:02;;;;;;;22.70;14.70;;;0.70;99.90;;;;;;5023937;28;20186;-93
2022/03/04 02:08:28;;;;;;;22.00;15.00;;;4.40;99.90;;;;;;5042773;28;20178;-93
2022/03/04 02:10:54;;;;;;;21.73;16.27;;;2.60;99.90;;;;;;5043989;28;20529;-93
2022/03/04 02:13:20;;;;;;;21.30;14.90;;;1.40;99.90;;;;;;5032970;28;20195;-94
2022/03/04 02:15:47;;;;;;;22.55;15.32;;;1.30;99.90;;;;;;5042358;28;20436;-93
2022/03/04 02:18:14;;;;;;;19.30;15.07;;;1.60;99.90;;;;;;5031409;28;20211;-93
2022/03/04 02:20:46;;;;;;;24.40;14.90;;;4.40;99.90;;;;;;5081085;28;20169;-93
2022/03/04 02:23:12;;;;;;;21.77;14.48;;;3.20;99.90;;;;;;5058505;28;20463;-93
2022/03/04 02:25:40;;;;;;;20.58;14.68;;;1.90;99.90;;;;;;5060529;28;20206;-92
2022/03/04 02:28:06;;;;;;;18.40;14.70;;;3.60;99.90;;;;;;5064978;28;20182;-92
2022/03/04 02:30:32;;;;;;;18.70;14.33;;;2.00;99.90;;;;;;5061619;28;20217;-91
2022/03/04 02:32:58;;;;;;;18.80;13.07;;;0.00;99.90;;;;;;5080567;28;20435;-92
2022/03/04 02:35:24;;;;;;;22.47;15.27;;;;;;;;;;5071087;28;20413;-92
2022/03/04 02:37:49;;;;;;;19.37;14.87;;;1.90;99.90;;;;;;5067452;28;20194;-91
2022/03/04 02:40:15;;;;;;;20.60;14.70;;;;;;;;;;5047686;28;20443;-91
2022/03/04 02:42:41;;;;;;;19.55;15.50;;;1.90;99.90;;;;;;5066567;28;20182;-92
2022/03/04 02:45:07;;;;;;;20.17;15.23;;;1.30;99.90;;;;;;5090721;28;20189;-91
2022/03/04 02:47:33;;;;;;;19.77;12.18;;;2.40;99.90;;;;;;5053226;28;20440;-92
2022/03/04 02:50:05;;;;;;;19.83;14.93;;;2.00;99.90;;;;;;5082456;28;20300;-92
2022/03/04 02:52:31;;;;;;;22.75;16.40;;;1.30;99.90;;;;;;5082911;28;20211;-92
2022/03/04 02:54:57;;;;;;;18.70;14.97;;;;;;;;;;5088558;28;20179;-92
2022/03/04 02:57:23;;;;;;;23.33;15.33;;;1.30;99.90;;;;;;5068953;28;20179;-92
2022/03/04 02:59:49;;;;;;;20.47;13.77;;;;;;;;;;5071352;28;20506;-92
2022/03/04 03:02:15;;;;;;;26.13;17.92;;;1.20;99.90;;;;;;5051764;28;20185;-92
2022/03/04 03:04:40;;;;;;;22.30;15.27;;;2.80;99.90;;;;;;5086404;28;20188;-92
2022/03/04 03:07:06;;;;;;;23.27;15.17;;;3.30;99.90;;;;;;5068697;28;20183;-92
2022/03/04 03:09:32;;;;;;;23.90;16.33;;;;;;;;;;5066791;28;20206;-92
2022/03/04 03:11:58;;;;;;;20.45;15.07;;;1.10;99.90;;;;;;5070974;28;20202;-92
2022/03/04 03:14:24;;;;;;;23.27;15.53;;;2.50;99.90;;;;;;5068747;28;20755;-92
2022/03/04 03:16:50;;;;;;;24.57;14.10;;;;;;;;;;5089182;28;20182;-94
2022/03/04 03:19:15;;;;;;;27.10;15.10;;;1.00;99.90;;;;;;5087865;28;20238;-92
2022/03/04 03:21:41;;;;;;;25.70;17.20;;;2.00;99.90;;;;;;5066929;28;20439;-93
2022/03/04 03:24:07;;;;;;;17.00;14.20;;;1.20;99.90;;;;;;5064774;28;20536;-92
2022/03/04 03:26:33;;;;;;;22.30;14.87;;;1.50;99.90;;;;;;5066003;28;20281;-92
2022/03/04 03:28:58;;;;;;;25.73;16.30;;;3.50;99.90;;;;;;5068206;28;20190;-93
2022/03/04 03:31:24;;;;;;;19.23;14.00;;;2.30;99.90;;;;;;5077135;28;20456;-92
2022/03/04 03:33:50;;;;;;;19.70;13.93;;;;;;;;;;5077154;28;20190;-92
2022/03/04 03:36:16;;;;;;;17.92;12.85;;;0.90;99.90;;;;;;5072066;28;20187;-92
2022/03/04 03:38:42;;;;;;;25.00;15.00;;;2.00;99.90;;;;;;5081402;28;20185;-92
2022/03/04 03:41:08;;;;;;;20.27;14.33;;;;;;;;;;5067117;28;20193;-92
2022/03/04 03:43:33;;;;;;;19.50;15.80;;;0.80;99.90;;;;;;5064707;28;20179;-93
2022/03/04 03:45:59;;;;;;;22.13;15.40;;;0.00;99.90;;;;;;5069286;28;20439;-92
2022/03/04 03:48:25;;;;;;;24.37;14.50;;;2.20;99.90;;;;;;5069640;28;20185;-92
2022/03/04 03:50:51;;;;;;;19.27;14.30;;;;;;;;;;5085541;28;20248;-92
2022/03/04 03:53:19;;;;;;;21.15;14.02;;;0.80;99.90;;;;;;5066857;28;20227;-92
2022/03/04 03:55:47;;;;;;;26.48;15.90;;;0.70;99.90;;;;;;5089096;28;20264;-92
2022/03/04 03:58:13;;;;;;;25.05;16.23;;;0.60;99.90;;;;;;5070264;28;20261;-91
2022/03/04 04:00:39;;;;;;;24.63;16.00;;;;;;;;;;5070657;28;20194;-92
2022/03/04 04:03:05;;;;;;;23.17;15.13;;;0.70;99.90;;;;;;5063858;28;20223;-93
2022/03/04 04:05:31;;;;;;;21.40;15.32;;;3.40;99.90;;;;;;5064116;28;20467;-91
2022/03/04 04:07:57;;;;;;;21.53;14.90;;;;;;;;;;5058117;28;20180;-92
2022/03/04 04:10:22;;;;;;;20.80;14.43;;;0.60;99.90;;;;;;5062541;28;20459;-92
2022/03/04 04:12:48;;;;;;;23.20;16.27;;;;;;;;;;5079094;28;20798;-92
2022/03/04 04:15:14;;;;;;;25.15;15.48;;;0.60;99.90;;;;;;5080498;28;20173;-92
2022/03/04 04:17:40;;;;;;;28.77;16.70;;;0.20;99.90;;;;;;5056993;28;20205;-91
2022/03/04 04:20:06;;;;;;;25.90;15.87;;;1.10;99.90;;;;;;5079191;28;20210;-92
2022/03/04 04:22:32;;;;;;;26.58;16.60;;;1.00;99.90;;;;;;5082104;28;20239;-92
2022/03/04 04:24:58;;;;;;;31.10;16.23;;;;;;;;;;5063057;28;20235;-86
2022/03/04 04:27:23;;;;;;;22.40;15.50;;;0.70;99.90;;;;;;5060311;28;20645;-91
2022/03/04 04:29:49;;;;;;;21.73;15.33;;;2.10;99.90;;;;;;5063872;28;20511;-89
2022/03/04 04:32:15;;;;;;;23.70;15.47;;;;;;;;;;5063017;28;20221;-91
2022/03/04 04:34:41;;;;;;;24.87;14.57;;;0.70;99.90;;;;;;5059961;28;20181;-93
2022/03/04 04:37:07;;;;;;;21.43;16.20;;;0.70;99.90;;;;;;5065335;28;20417;-92
2022/03/04 04:39:33;;;;;;;22.15;15.82;;;1.20;99.90;;;;;;5065126;28;20191;-90
2022/03/04 04:41:58;;;;;;;23.43;16.00;;;;;;;;;;5061287;28;20374;-92
2022/03/04 04:44:24;;;;;;;22.73;16.47;;;0.60;99.90;;;;;;5077206;28;20783;-92
2022/03/04 04:46:50;;;;;;;27.63;17.53;;;;;;;;;;5077830;28;20856;-92
2022/03/04 04:49:16;;;;;;;25.70;18.10;;;0.50;99.90;;;;;;5059541;28;20439;-92
2022/03/04 04:51:42;;;;;;;24.77;15.30;;;0.60;99.90;;;;;;5061649;28;20851;-89
2022/03/04 04:54:08;;;;;;;24.40;16.37;;;;;;;;;;5063258;28;20231;-92
2022/03/04 04:56:33;;;;;;;21.30;15.80;;;0.40;99.90;;;;;;5064920;28;20194;-93
2022/03/04 04:58:59;;;;;;;26.63;17.37;;;;;;;;;;5064125;28;20444;-91
2022/03/04 05:01:25;;;;;;;21.92;16.25;;;0.40;99.90;;;;;;5085124;28;20201;-92
2022/03/04 05:03:51;;;;;;;23.93;15.63;;;;;;;;;;5060698;28;20273;-91
2022/03/04 05:06:19;;;;;;;26.00;16.57;;;0.30;99.90;;;;;;5080813;28;20428;-92
2022/03/04 05:08:44;;;;;;;25.77;17.50;;;0.20;99.90;;;;;;5062416;28;20818;-91
2022/03/04 05:11:10;;;;;;;23.63;16.20;;;-0.30;99.90;;;;;;5063945;28;20202;-92
2022/03/04 05:13:36;;;;;;;23.77;14.90;;;;;;;;;;5072005;28;20217;-91
2022/03/04 05:16:02;;;;;;;29.00;18.30;;;0.20;99.90;;;;;;5065527;28;20650;-91
2022/03/04 05:18:30;;;;;;;31.23;17.37;;;;;;;;;;5065947;28;20281;-91
2022/03/04 05:20:59;;;;;;;26.20;16.25;;;0.30;99.90;;;;;;5066665;28;20185;-91
2022/03/04 05:26:10;;;;;;;29.63;18.42;;;-0.20;99.90;;;;;;5062672;28;20177;-90
2022/03/04 05:28:36;;;;;;;21.65;13.95;;;0.70;99.90;;;;;;5080866;28;20202;-91
2022/03/04 05:31:02;;;;;;;21.17;13.97;;;;;;;;;;5047119;28;20219;-90
2022/03/04 05:33:28;;;;;;;25.35;18.13;;;0.50;99.90;;;;;;5059769;28;20457;-90
2022/03/04 05:35:54;;;;;;;28.23;16.60;;;;;;;;;;5060386;28;20179;-91
2022/03/04 05:38:21;;;;;;;23.38;16.27;;;0.40;99.90;;;;;;5061574;28;20190;-89
2022/03/04 05:40:46;;;;;;;26.15;16.95;;;0.60;99.90;;;;;;5045536;28;20186;-91
2022/03/04 05:43:15;;;;;;;28.17;16.60;;;0.40;99.90;;;;;;5062194;28;20203;-93
2022/03/04 05:45:46;;;;;;;25.52;17.10;;;0.50;99.90;;;;;;5067506;28;20522;-92
2022/03/04 05:48:12;;;;;;;28.35;17.65;;;0.40;99.90;;;;;;5063099;28;20183;-91
2022/03/04 05:50:38;;;;;;;28.07;17.20;;;;;;;;;;5066361;28;20232;-90
2022/03/04 05:53:04;;;;;;;43.73;22.77;;;0.20;99.90;;;;;;5046623;28;20464;-90
2022/03/04 05:55:30;;;;;;;30.30;19.03;;;0.80;99.90;;;;;;5062808;28;20426;-91
2022/03/04 05:57:59;;;;;;;25.10;17.40;;;2.30;99.90;;;;;;5064741;28;20424;-90
2022/03/04 06:00:40;;;;;;;22.75;15.82;;;0.00;99.90;;;;;;5073151;28;20453;-91
2022/03/04 06:03:07;;;;;;;27.35;16.77;;;0.10;99.90;;;;;;5039125;28;20744;-91
2022/03/04 06:05:34;;;;;;;30.55;17.17;;;-0.20;99.90;;;;;;5034862;28;20217;-89
2022/03/04 06:08:04;;;;;;;29.48;17.80;;;0.10;99.90;;;;;;5049782;28;20189;-91
2022/03/04 06:10:48;;;;;;;29.00;16.40;;;1.10;99.90;;;;;;5060799;28;20215;-91
2022/03/04 06:13:13;;;;;;;23.85;15.75;;;0.10;99.90;;;;;;5043114;28;20182;-91
2022/03/04 06:15:39;;;;;;;30.03;17.87;;;-0.80;99.90;;;;;;5043713;28;20185;-88
2022/03/04 06:18:05;;;;;;;29.60;18.83;;;;;;;;;;5041470;28;20449;-91
2022/03/04 06:20:34;;;;;;;21.97;15.93;;;0.00;99.90;;;;;;5050673;28;20210;-90
2022/03/04 06:23:00;;;;;;;50.75;22.73;;;-0.30;99.90;;;;;;5066421;28;20426;-91
2022/03/04 06:25:26;;;;;;;24.20;18.10;;;-0.70;99.90;;;;;;5065395;28;20191;-91
2022/03/04 06:27:59;;;;;;;27.83;13.95;;;-0.10;99.90;;;;;;5065226;28;20171;-88
2022/03/04 06:30:28;;;;;;;40.40;16.27;;;0.60;99.90;;;;;;5051289;28;20223;-91
2022/03/04 06:35:51;;;;;;;28.00;16.45;;;-0.20;99.90;;;;;;5047822;28;20194;-92
2022/03/04 06:38:39;;;;;;;28.02;15.98;;;0.60;99.90;;;;;;5063317;28;20191;-91
2022/03/04 06:41:05;;;;;;;26.35;14.50;;;-0.70;99.90;;;;;;5050589;28;20194;-89
2022/03/04 06:43:38;;;;;;;23.38;15.85;;;0.70;99.90;;;;;;5049719;28;20219;-93
2022/03/04 06:46:06;;;;;;;24.23;16.55;;;0.50;99.90;;;;;;5051426;28;20190;-89
2022/03/04 06:48:36;;;;;;;31.63;18.02;;;0.70;99.90;;;;;;5068318;28;20251;-93
2022/03/04 06:51:24;;;;;;;29.73;18.17;;;0.10;99.90;;;;;;5051413;28;20215;-92
2022/03/04 06:53:58;;;;;;;31.48;18.55;;;1.50;99.90;;;;;;5054556;28;20172;-91
2022/03/04 06:56:23;;;;;;;32.65;19.20;;;0.30;99.90;;;;;;5072222;28;20304;-92
2022/03/04 06:58:52;;;;;;;29.33;19.17;;;1.90;99.90;;;;;;5071966;28;20179;-92
2022/03/04 07:01:28;;;;;;;24.70;16.50;;;0.20;99.90;;;;;;4721538;28;10000384;-93
2022/03/04 07:03:53;;;;;;;27.02;15.88;;;4.20;99.90;;;;;;5076650;28;20241;-91
2022/03/04 07:06:20;;;;;;;26.43;16.97;;;;;;;;;;5079785;28;20180;-95
2022/03/04 07:08:54;;;;;;;24.70;16.73;;;0.80;99.90;;;;;;5052058;23;20234;-82
2022/03/04 07:11:20;;;;;;;22.00;14.73;;;1.30;99.90;;;;;;5009752;28;20302;-79
2022/03/04 07:13:46;;;;;;;21.57;16.30;;;2.40;99.90;;;;;;4986742;28;20519;-82
2022/03/04 07:16:14;;;;;;;22.43;15.77;;;4.50;99.90;;;;;;4972882;28;20428;-81
2022/03/04 07:18:43;;;;;;;21.83;15.73;;;3.60;99.90;;;;;;4988968;28;20691;-82
2022/03/04 07:21:08;;;;;;;31.33;15.60;;;5.50;99.90;;;;;;4973167;28;20427;-83
2022/03/04 07:23:34;;;;;;;24.47;16.00;;;5.30;99.90;;;;;;4971571;28;20956;-81
2022/03/04 07:26:08;;;;;;;18.43;14.80;;;5.70;99.90;;;;;;4991241;28;20169;-82
2022/03/04 07:28:34;;;;;;;18.73;15.30;;;6.00;99.90;;;;;;4972750;28;20182;-83
2022/03/04 07:31:02;;;;;;;19.30;16.00;;;6.60;99.90;;;;;;4978161;28;20504;-83
2022/03/04 07:33:33;;;;;;;22.40;16.90;;;6.70;99.90;;;;;;5003713;28;20443;-84
2022/03/04 07:35:59;;;;;;;22.60;17.40;;;6.70;99.90;;;;;;4996170;28;20424;-83
2022/03/04 07:38:24;;;;;;;23.13;16.70;;;7.40;98.80;;;;;;5001068;28;20495;-80
2022/03/04 07:40:50;;;;;;;26.43;17.60;;;7.60;97.60;;;;;;4977813;28;20551;-84
2022/03/04 07:43:23;;;;;;;20.17;16.20;;;9.20;97.40;;;;;;4985058;28;20188;-84
2022/03/04 07:45:49;;;;;;;17.60;15.37;;;8.40;95.80;;;;;;4993976;28;20640;-81
2022/03/04 07:48:14;;;;;;;24.30;18.20;;;8.20;94.30;;;;;;4992495;28;20551;-83
2022/03/04 07:50:40;;;;;;;20.07;15.77;;;8.50;93.40;;;;;;4984379;28;20227;-85
2022/03/04 07:53:12;;;;;;;20.30;16.97;;;8.80;91.50;;;;;;5005179;28;20201;-84
2022/03/04 07:55:38;;;;;;;19.33;16.80;;;9.20;89.70;;;;;;4976801;28;20181;-84
2022/03/04 07:58:04;;;;;;;21.70;17.70;;;9.80;87.90;;;;;;4999010;28;20824;-84
2022/03/04 08:00:29;;;;;;;23.73;18.30;;;9.80;83.90;;;;;;4981587;28;20504;-84
2022/03/04 08:02:56;;;;;;;24.33;17.53;;;10.10;76.60;;;;;;5008460;28;20291;-86
2022/03/04 08:05:22;;;;;;;23.83;17.10;;;9.80;77.10;;;;;;5004309;28;20644;-85
2022/03/04 08:07:48;;;;;;;19.43;17.23;;;12.60;73.60;;;;;;4982906;28;20424;-82
2022/03/04 08:10:15;;;;;;;20.73;18.53;;;13.90;70.30;;;;;;5012506;28;20494;-82
2022/03/04 08:12:41;;;;;;;19.07;17.07;;;10.20;60.10;;;;;;4994745;28;20271;-84
2022/03/04 08:15:10;;;;;;;19.70;17.20;;;13.40;62.60;;;;;;4992325;28;20439;-84
2022/03/04 08:17:36;;;;;;;25.20;17.77;;;11.20;56.60;;;;;;5010292;28;20424;-84
2022/03/04 08:20:03;;;;;;;18.70;16.77;;;13.20;56.20;;;;;;4993252;28;20478;-84
2022/03/04 08:22:28;;;;;;;18.63;16.57;;;12.30;52.70;;;;;;5003911;28;20439;-85
2022/03/04 08:24:54;;;;;;;21.67;17.77;;;13.70;51.10;;;;;;4990970;28;20587;-83
2022/03/04 08:27:20;;;;;;;21.83;18.07;;;12.90;48.40;;;;;;5010361;28;20300;-84
2022/03/04 08:29:45;;;;;;;24.23;18.77;;;13.10;47.30;;;;;;5008232;28;20522;-83
2022/03/04 08:32:11;;;;;;;20.87;16.80;;;13.50;46.10;;;;;;5010097;28;20180;-83
2022/03/04 08:34:37;;;;;;;27.93;18.40;;;13.70;45.30;;;;;;4975643;28;20185;-81
2022/03/04 08:37:03;;;;;;;22.87;17.90;;;13.90;44.30;;;;;;4992585;28;20654;-81
2022/03/04 08:39:29;;;;;;;18.87;16.90;;;14.40;43.20;;;;;;4989898;28;20207;-82
2022/03/04 08:41:55;;;;;;;20.23;18.10;;;14.40;42.20;;;;;;4991171;28;20424;-82
2022/03/04 08:44:20;;;;;;;22.83;16.43;;;14.30;41.60;;;;;;5002128;28;20439;-84
2022/03/04 08:46:47;;;;;;;25.10;17.90;;;14.70;41.00;;;;;;4993445;28;20208;-83
2022/03/04 08:49:13;;;;;;;21.80;18.57;;;14.90;40.50;;;;;;5011374;28;20217;-83
2022/03/04 08:51:39;;;;;;;22.63;18.03;;;14.20;39.40;;;;;;5012453;28;20759;-83
2022/03/04 08:54:06;;;;;;;22.87;18.67;;;15.00;39.90;;;;;;5015196;28;20444;-84
2022/03/04 08:56:32;;;;;;;20.27;18.27;;;15.30;38.90;;;;;;4997839;28;20203;-85
2022/03/04 08:58:58;;;;;;;20.50;18.00;;;15.80;39.00;;;;;;4999721;28;20786;-82
2022/03/04 09:01:24;;;;;;;19.57;17.57;;;15.80;38.10;;;;;;5005894;28;20545;-80
2022/03/04 09:03:49;;;;;;;20.87;18.83;;;16.10;37.40;;;;;;4989530;28;20188;-79
2022/03/04 09:06:15;;;;;;;26.47;19.77;;;16.30;37.60;;;;;;5005572;28;20219;-81
2022/03/04 09:08:41;;;;;;;27.00;19.43;;;16.00;37.40;;;;;;5004357;28;20291;-81
2022/03/04 09:11:07;;;;;;;20.07;17.80;;;16.80;37.00;;;;;;4987134;28;20735;-80
2022/03/04 09:13:33;;;;;;;19.53;17.60;;;17.00;36.20;;;;;;4987768;28;20423;-81
2022/03/04 09:16:00;;;;;;;25.03;19.57;;;17.30;36.00;;;;;;4985589;28;20448;-81
2022/03/04 09:18:26;;;;;;;21.03;19.03;;;17.30;35.80;;;;;;4987581;28;20471;-82
2022/03/04 09:20:52;;;;;;;25.93;19.07;;;17.70;35.30;;;;;;4985183;28;20483;-80
2022/03/04 09:23:18;;;;;;;26.80;19.23;;;17.20;34.70;;;;;;5005384;28;20518;-80
2022/03/04 09:28:38;;;;;;;20.57;18.37;;;17.20;34.80;;;;;;4977626;28;20687;-81
2022/03/04 09:31:04;;;;;;;25.83;20.83;;;17.60;36.90;;;;;;4969313;28;20444;-79
2022/03/04 09:33:34;;;;;;;19.30;17.40;;;18.10;35.70;;;;;;4993990;28;20567;-81
2022/03/04 09:36:16;;;;;;;;;;;;;;;;;;;;;
2022/03/04 09:38:43;;;;;;;20.57;18.37;;;18.20;34.70;;;;;;5032968;23;20895;-81
2022/03/04 09:41:15;;;;;;;21.70;19.60;;;18.40;34.60;;;;;;5010614;28;20497;-80
2022/03/04 09:43:42;;;;;;;22.73;18.23;;;;;;;;;;5028489;28;20435;-80
2022/03/04 09:46:08;;;;;;;20.43;18.53;;;18.90;32.90;;;;;;5022375;28;20457;-82
2022/03/04 09:48:40;;;;;;;19.80;17.87;;;18.60;32.50;;;;;;5025575;28;20422;-79
2022/03/04 09:51:07;;;;;;;21.93;19.63;;;19.50;33.80;;;;;;5008081;28;20529;-81
2022/03/04 09:53:36;;;;;;;21.90;19.53;;;19.40;32.90;;;;;;5024160;28;20882;-82
2022/03/04 09:56:03;;;;;;;22.23;19.17;;;21.40;33.30;;;;;;5008647;28;20435;-81
2022/03/04 09:58:28;;;;;;;19.77;17.77;;;20.20;31.70;;;;;;5025039;28;20568;-82
2022/03/04 10:00:57;;;;;;;21.83;18.17;;;20.40;32.10;;;;;;4659208;28;10000223;-82
2022/03/04 10:03:29;;;;;;;20.67;18.57;;;20.60;32.60;;;;;;5013335;28;20175;-82
2022/03/04 10:05:56;;;;;;;24.70;19.17;;;20.60;31.70;;;;;;5009364;28;20973;-80
2022/03/04 10:08:23;;;;;;;23.07;20.70;;;19.70;31.50;;;;;;5026990;28;20493;-80
2022/03/04 10:10:53;;;;;;;20.37;18.20;;;20.50;31.40;;;;;;5023233;28;20474;-82
2022/03/04 10:13:49;;;;;;;21.13;19.10;;;22.30;30.80;;;;;;5041413;28;20442;-81
2022/03/04 10:16:28;;;;;;;24.67;20.30;;;21.20;29.40;;;;;;5018888;28;20461;-81
2022/03/04 10:19:08;;;;;;;21.10;19.00;;;21.80;29.70;;;;;;5015403;28;21158;-81
2022/03/04 10:21:46;;;;;;;20.10;18.20;;;21.20;29.60;;;;;;5005398;28;20431;-82
2022/03/04 10:24:12;;;;;;;22.30;20.20;;;22.60;29.70;;;;;;5014729;28;20433;-83
2022/03/04 10:26:37;;;;;;;22.27;20.13;;;22.10;29.10;;;;;;5010693;28;20507;-78
2022/03/04 10:29:24;;;;;;;21.40;19.50;;;22.70;29.40;;;;;;5032278;28;20418;-84
2022/03/04 10:32:14;;;;;;;24.23;21.27;;;22.90;28.70;;;;;;4989219;28;20219;-84
2022/03/04 10:34:53;;;;;;;21.77;19.70;;;22.50;29.10;;;;;;5032374;28;20422;-80
2022/03/04 10:37:38;;;;;;;22.53;19.27;;;21.30;29.50;;;;;;5028496;28;20849;-82
2022/03/04 10:40:15;;;;;;;21.80;19.70;;;21.60;29.00;;;;;;5027394;28;20445;-81
2022/03/04 10:42:51;;;;;;;27.73;19.67;;;22.20;29.40;;;;;;5036352;28;20803;-81
2022/03/04 10:45:16;;;;;;;22.00;19.67;;;21.60;29.00;;;;;;5022755;28;20532;-82
2022/03/04 10:47:57;;;;;;;21.60;19.50;;;21.80;29.10;;;;;;5028484;28;20513;-79
2022/03/04 10:50:50;;;;;;;24.10;21.80;;;22.00;28.90;;;;;;5031690;28;20356;-81
2022/03/04 10:53:24;;;;;;;21.33;19.40;;;21.70;29.30;;;;;;5027575;28;20444;-79
2022/03/04 10:55:52;;;;;;;23.30;21.30;;;20.60;28.40;;;;;;5012285;28;20962;-81
2022/03/04 10:58:33;;;;;;;22.40;20.10;;;22.20;34.90;;;;;;5025018;28;20516;-83
2022/03/04 11:01:16;;;;;;;22.57;20.37;;;20.50;29.20;;;;;;5011379;28;20441;-84
2022/03/04 11:03:42;;;;;;;23.50;21.10;;;20.40;29.20;;;;;;5045642;28;20465;-83
2022/03/04 11:06:17;;;;;;;23.50;21.10;;;21.20;29.20;;;;;;5031090;28;20480;-81
2022/03/04 11:08:43;;;;;;;23.60;21.40;;;21.20;29.10;;;;;;5042371;28;20180;-83
2022/03/04 11:11:09;;;;;;;22.30;20.13;;;21.10;29.10;;;;;;5010668;28;20470;-81
2022/03/04 11:13:36;;;;;;;23.50;20.73;;;21.40;28.90;;;;;;5026838;28;20437;-82
2022/03/04 11:16:04;;;;;;;24.43;20.10;;;22.10;29.30;;;;;;5026554;28;20418;-82
2022/03/04 11:18:29;;;;;;;21.80;19.80;;;21.60;28.30;;;;;;5027418;28;20812;-74
2022/03/04 11:20:59;;;;;;;24.13;21.17;;;21.70;29.10;;;;;;5011676;28;20473;-83
2022/03/04 11:23:27;;;;;;;23.07;21.00;;;22.20;29.10;;;;;;4680048;28;10000114;-84
2022/03/04 11:26:16;;;;;;;22.80;20.73;;;22.10;28.70;;;;;;5008048;28;20752;-85
2022/03/04 11:29:06;;;;;;;;;;;;;;;;;;;;;
2022/03/04 11:31:35;;;;;;;20.97;18.97;;;21.20;27.70;;;;;;5011982;28;20474;-86
2022/03/04 11:34:03;;;;;;;22.00;19.70;;;23.10;28.90;;;;;;5014389;28;20934;-85
2022/03/04 11:36:32;;;;;;;21.60;19.27;;;22.50;31.70;;;;;;5032078;28;20838;-86
2022/03/04 11:39:01;;;;;;;20.00;18.20;;;24.20;28.10;;;;;;5029596;28;20434;-82
2022/03/04 11:41:27;;;;;;;20.63;18.80;;;24.30;27.70;;;;;;5033205;28;20609;-86
2022/03/04 11:44:00;;;;;;;21.73;19.73;;;23.80;27.60;;;;;;5012773;28;20479;-85
2022/03/04 11:46:26;;;;;;;20.00;18.20;;;23.00;26.80;;;;;;5016885;28;20410;-80
2022/03/04 11:49:27;;;;;;;20.50;18.53;;;24.10;28.50;;;;;;5029903;28;20470;-86
2022/03/04 11:52:11;;;;;;;19.50;17.80;;;22.40;27.10;;;;;;5031558;28;20198;-85
2022/03/04 11:54:39;;;;;;;20.50;18.60;;;22.00;27.00;;;;;;5025288;28;20781;-79
2022/03/04 11:57:35;;;;;;;19.73;17.90;;;22.40;27.30;;;;;;5028339;28;20426;-85
2022/03/04 12:00:22;;;;;;;18.70;17.17;;;22.50;27.20;;;;;;4998660;28;20439;-85
2022/03/04 12:02:51;;;;;;;17.73;15.90;;;22.90;26.70;;;;;;5009900;28;20404;-78
2022/03/04 12:05:22;;;;;;;19.27;17.30;;;22.70;26.40;;;;;;5030471;28;20410;-86
2022/03/04 12:07:59;;;;;;;19.97;17.30;;;23.30;26.70;;;;;;5011764;28;20499;-86
2022/03/04 12:10:29;;;;;;;22.33;20.23;;;23.30;26.60;;;;;;5029849;28;20474;-86
2022/03/04 12:13:18;;;;;;;19.50;17.70;;;23.40;26.60;;;;;;5031800;28;20430;-84
2022/03/04 12:15:51;;;;;;;20.43;18.33;;;23.30;26.60;;;;;;5019187;28;20423;-85
2022/03/04 12:18:25;;;;;;;21.87;19.67;;;23.50;26.60;;;;;;5016002;28;20521;-85
2022/03/04 12:20:59;;;;;;;18.77;17.03;;;23.80;26.50;;;;;;5027940;28;20704;-86
2022/03/04 12:23:33;;;;;;;22.20;18.50;;;23.20;27.10;;;;;;5025133;28;20832;-84
2022/03/04 12:25:58;;;;;;;21.37;17.23;;;23.80;27.50;;;;;;5031315;28;20414;-84
2022/03/04 12:28:46;;;;;;;19.60;17.60;;;22.70;26.90;;;;;;5032430;28;20487;-79
2022/03/04 12:31:24;;;;;;;18.73;16.97;;;22.30;26.70;;;;;;5042616;28;20203;-88
2022/03/04 12:33:58;;;;;;;20.77;17.90;;;25.10;29.20;;;;;;5032417;28;20500;-82
2022/03/04 12:36:26;;;;;;;18.60;16.63;;;23.90;28.20;;;;;;5026067;28;20422;-80
2022/03/04 12:39:03;;;;;;;19.77;18.03;;;23.80;27.20;;;;;;5018534;28;20980;-85
2022/03/04 12:41:33;;;;;;;24.63;18.97;;;23.40;26.20;;;;;;5031419;28;20888;-86
2022/03/04 12:44:03;;;;;;;20.20;17.93;;;23.60;26.40;;;;;;5029538;28;20423;-86
2022/03/04 12:46:30;;;;;;;19.50;17.50;;;23.60;26.60;;;;;;5011483;28;20522;-84
2022/03/04 12:48:57;;;;;;;19.53;17.63;;;22.90;26.30;;;;;;5030931;28;20422;-82
2022/03/04 12:51:28;;;;;;;19.87;17.73;;;22.70;26.40;;;;;;5010072;28;20462;-82
2022/03/04 12:54:01;;;;;;;18.77;16.97;;;23.20;26.60;;;;;;5029727;28;20483;-80
2022/03/04 12:56:33;;;;;;;17.50;15.87;;;22.00;25.40;;;;;;5013152;28;20427;-83
2022/03/04 12:59:01;;;;;;;18.50;16.70;;;23.30;27.30;;;;;;5018802;28;21018;-85
2022/03/04 13:01:29;;;;;;;19.53;17.70;;;23.20;26.40;;;;;;5010559;28;20427;-85